createdAt,value
2023-01-13T00:01:47.196Z,9.00
2023-01-13T00:04:13.996Z,9.00
2023-01-13T00:06:40.922Z,9.00
2023-01-13T00:09:07.744Z,9.00
2023-01-13T00:11:35.382Z,8.90
2023-01-13T00:14:02.226Z,8.90
2023-01-13T00:16:28.975Z,8.80
2023-01-13T00:18:55.971Z,8.90
2023-01-13T00:21:24.602Z,8.70
2023-01-13T00:23:55.380Z,8.80
2023-01-13T00:26:25.020Z,8.80
2023-01-13T00:28:59.678Z,8.70
2023-01-13T00:31:27.874Z,8.60
2023-01-13T00:33:57.057Z,8.60
2023-01-13T00:36:24.029Z,8.50
2023-01-13T00:38:50.840Z,8.50
2023-01-13T00:41:20.197Z,8.40
2023-01-13T00:43:47.404Z,8.30
2023-01-13T00:46:17.446Z,8.30
2023-01-13T00:48:44.825Z,8.30
2023-01-13T00:51:17.339Z,8.40
2023-01-13T00:53:47.633Z,8.40
2023-01-13T00:56:16.650Z,8.30
2023-01-13T00:58:44.839Z,8.30
2023-01-13T01:01:14.490Z,8.30
2023-01-13T01:03:41.455Z,8.20
2023-01-13T01:06:12.337Z,8.20
2023-01-13T01:08:39.371Z,8.20
2023-01-13T01:11:08.649Z,8.30
2023-01-13T01:13:36.039Z,8.30
2023-01-13T01:16:08.969Z,8.30
2023-01-13T01:18:37.435Z,8.30
2023-01-13T01:21:05.312Z,8.30
2023-01-13T01:23:33.838Z,8.20
2023-01-13T01:26:08.405Z,8.20
2023-01-13T01:28:35.540Z,8.30
2023-01-13T01:31:10.980Z,8.20
2023-01-13T01:33:37.924Z,8.20
2023-01-13T01:36:05.076Z,8.20
2023-01-13T01:38:31.883Z,8.20
2023-01-13T01:40:58.810Z,8.30
2023-01-13T01:44:24.061Z,8.40
2023-01-13T01:46:51.890Z,8.50
2023-01-13T01:49:18.767Z,8.40
2023-01-13T01:51:49.940Z,8.40
2023-01-13T01:54:24.310Z,8.30
2023-01-13T01:56:51.978Z,8.30
2023-01-13T01:59:19.197Z,8.30
2023-01-13T02:01:49.270Z,8.20
2023-01-13T02:04:25.379Z,8.20
2023-01-13T02:06:53.593Z,8.20
2023-01-13T02:09:20.416Z,8.40
2023-01-13T02:12:05.738Z,8.40
2023-01-13T02:14:34.375Z,8.40
2023-01-13T02:17:46.161Z,8.30
2023-01-13T02:20:31.602Z,8.30
2023-01-13T02:23:01.529Z,8.30
2023-01-13T02:25:46.858Z,8.30
2023-01-13T02:28:16.568Z,8.20
2023-01-13T02:31:01.860Z,8.20
2023-01-13T02:34:03.871Z,8.10
2023-01-13T02:36:46.916Z,8.10
2023-01-13T02:39:29.858Z,8.10
2023-01-13T02:42:28.730Z,8.10
2023-01-13T02:45:14.842Z,8.10
2023-01-13T02:47:44.128Z,8.10
2023-01-13T02:50:13.812Z,8.00
2023-01-13T02:52:58.482Z,8.00
2023-01-13T02:55:32.284Z,8.10
2023-01-13T02:58:02.054Z,8.00
2023-01-13T03:00:29.874Z,7.90
2023-01-13T03:02:57.349Z,8.00
2023-01-13T03:05:24.678Z,7.90
2023-01-13T03:08:22.952Z,7.90
2023-01-13T03:11:03.035Z,7.80
2023-01-13T03:13:39.230Z,7.90
2023-01-13T03:16:27.679Z,7.90
2023-01-13T03:19:16.276Z,7.90
2023-01-13T03:21:49.146Z,7.80
2023-01-13T03:24:37.099Z,7.90
2023-01-13T03:27:15.446Z,7.90
2023-01-13T03:30:09.606Z,8.00
2023-01-13T03:32:44.357Z,8.10
2023-01-13T03:35:17.661Z,8.00
2023-01-13T03:37:53.516Z,8.10
2023-01-13T03:40:33.262Z,8.10
2023-01-13T03:43:28.727Z,8.10
2023-01-13T03:45:59.943Z,8.10
2023-01-13T03:48:28.741Z,8.20
2023-01-13T03:51:02.450Z,8.20
2023-01-13T03:53:32.752Z,8.00
2023-01-13T03:56:13.318Z,8.10
2023-01-13T03:58:44.907Z,8.00
2023-01-13T04:01:17.072Z,8.00
2023-01-13T04:03:50.215Z,8.20
2023-01-13T04:06:22.681Z,8.10
2023-01-13T04:08:57.517Z,8.10
2023-01-13T04:11:38.034Z,8.10
2023-01-13T04:14:07.811Z,8.10
2023-01-13T04:16:37.625Z,8.20
2023-01-13T04:19:04.953Z,8.10
2023-01-13T04:21:32.032Z,8.00
2023-01-13T04:23:58.834Z,8.00
2023-01-13T04:26:25.832Z,8.00
2023-01-13T04:28:54.751Z,8.00
2023-01-13T04:31:22.002Z,8.00
2023-01-13T04:33:48.928Z,8.00
2023-01-13T04:36:15.846Z,8.00
2023-01-13T04:38:42.821Z,8.10
2023-01-13T04:41:09.668Z,8.00
2023-01-13T04:43:36.715Z,8.00
2023-01-13T04:46:03.579Z,8.00
2023-01-13T04:48:30.480Z,8.10
2023-01-13T04:50:57.342Z,8.10
2023-01-13T04:53:24.125Z,8.10
2023-01-13T04:55:52.069Z,8.00
2023-01-13T04:58:18.978Z,8.00
2023-01-13T05:00:45.788Z,8.00
2023-01-13T05:03:12.733Z,8.00
2023-01-13T05:05:39.562Z,8.10
2023-01-13T05:08:06.441Z,8.00
2023-01-13T05:10:33.498Z,8.10
2023-01-13T05:13:18.773Z,7.90
2023-01-13T05:16:06.437Z,8.00
2023-01-13T05:18:33.672Z,7.90
2023-01-13T05:21:00.541Z,8.10
2023-01-13T05:23:46.640Z,8.00
2023-01-13T05:26:13.552Z,8.00
2023-01-13T05:28:40.347Z,8.00
2023-01-13T05:31:07.241Z,8.00
2023-01-13T05:33:35.730Z,8.00
2023-01-13T05:36:03.888Z,7.90
2023-01-13T05:38:30.876Z,7.90
2023-01-13T05:41:18.974Z,7.90
2023-01-13T05:43:48.766Z,7.90
2023-01-13T05:46:17.695Z,7.90
2023-01-13T05:48:45.535Z,7.80
2023-01-13T05:51:13.198Z,7.90
2023-01-13T05:53:40.946Z,7.80
2023-01-13T05:56:09.487Z,7.80
2023-01-13T05:58:36.479Z,7.90
2023-01-13T06:01:07.768Z,7.90
2023-01-13T06:03:36.500Z,8.00
2023-01-13T06:06:04.532Z,8.10
2023-01-13T06:08:32.272Z,8.10
2023-01-13T06:10:59.489Z,8.00
2023-01-13T06:13:26.485Z,8.00
2023-01-13T06:16:00.568Z,7.90
2023-01-13T06:18:27.894Z,7.90
2023-01-13T06:20:55.165Z,7.90
2023-01-13T06:23:21.999Z,8.00
2023-01-13T06:26:19.031Z,8.00
2023-01-13T06:28:50.062Z,8.00
2023-01-13T06:31:17.466Z,7.90
2023-01-13T06:33:50.653Z,8.00
2023-01-13T06:36:19.618Z,8.00
2023-01-13T06:38:49.825Z,8.00
2023-01-13T06:41:17.265Z,8.00
2023-01-13T06:43:44.201Z,8.00
2023-01-13T06:46:11.052Z,8.00
2023-01-13T06:48:37.896Z,7.90
2023-01-13T06:51:05.427Z,8.00
2023-01-13T06:53:32.408Z,8.00
2023-01-13T06:55:59.223Z,8.00
2023-01-13T06:58:26.151Z,8.00
2023-01-13T07:00:53.677Z,8.00
2023-01-13T07:03:20.651Z,8.10
2023-01-13T07:05:55.336Z,8.10
2023-01-13T07:08:23.376Z,8.10
2023-01-13T07:10:51.170Z,8.10
2023-01-13T07:13:36.828Z,8.10
2023-01-13T07:16:06.606Z,8.10
2023-01-13T07:18:34.745Z,8.10
2023-01-13T07:21:09.820Z,8.10
2023-01-13T07:23:39.609Z,8.10
2023-01-13T07:26:08.263Z,8.10
2023-01-13T07:28:35.663Z,8.00
2023-01-13T07:31:02.973Z,8.00
2023-01-13T07:33:33.163Z,8.00
2023-01-13T07:36:05.524Z,7.90
2023-01-13T07:38:33.770Z,7.90
2023-01-13T07:41:24.019Z,7.90
2023-01-13T07:43:51.887Z,8.10
2023-01-13T07:46:19.210Z,8.00
2023-01-13T07:48:47.225Z,7.90
2023-01-13T07:51:14.079Z,8.00
2023-01-13T07:53:40.979Z,7.90
2023-01-13T07:56:08.435Z,8.00
2023-01-13T07:58:36.650Z,8.00
2023-01-13T08:01:12.421Z,8.00
2023-01-13T08:03:40.754Z,8.00
2023-01-13T08:06:08.244Z,8.10
2023-01-13T08:08:35.374Z,8.10
2023-01-13T08:11:05.555Z,8.00
2023-01-13T08:13:32.395Z,7.90
2023-01-13T08:16:17.489Z,7.80
2023-01-13T08:18:44.409Z,7.80
2023-01-13T08:21:14.161Z,7.80
2023-01-13T08:23:42.440Z,7.70
2023-01-13T08:26:16.120Z,7.70
2023-01-13T08:28:44.836Z,7.70
2023-01-13T08:31:14.485Z,7.70
2023-01-13T08:33:42.391Z,7.80
2023-01-13T08:36:12.320Z,7.70
2023-01-13T08:38:43.686Z,7.70
2023-01-13T08:41:13.618Z,7.50
2023-01-13T08:43:40.546Z,7.50
2023-01-13T08:46:07.646Z,7.40
2023-01-13T08:48:34.607Z,7.40
2023-01-13T08:51:06.572Z,7.40
2023-01-13T08:53:33.512Z,7.30
2023-01-13T08:56:00.449Z,7.30
2023-01-13T08:58:27.406Z,7.20
2023-01-13T09:00:54.325Z,7.20
2023-01-13T09:03:21.510Z,7.30
2023-01-13T09:05:48.320Z,7.20
2023-01-13T09:08:15.202Z,7.30
2023-01-13T09:10:42.187Z,7.30
2023-01-13T09:13:13.238Z,7.40
2023-01-13T09:15:45.916Z,7.40
2023-01-13T09:18:13.315Z,7.40
2023-01-13T09:20:40.550Z,7.40
2023-01-13T09:23:11.028Z,7.40
2023-01-13T09:25:38.965Z,7.60
2023-01-13T09:28:12.780Z,7.50
2023-01-13T09:30:39.607Z,7.50
2023-01-13T09:33:27.762Z,7.60
2023-01-13T09:36:08.236Z,7.60
2023-01-13T09:38:35.045Z,7.60
2023-01-13T09:41:22.533Z,7.60
2023-01-13T09:43:56.799Z,7.60
2023-01-13T09:46:44.845Z,7.70
2023-01-13T09:49:27.069Z,7.70
2023-01-13T09:52:10.237Z,7.70
2023-01-13T09:55:05.050Z,7.70
2023-01-13T09:57:37.532Z,7.80
2023-01-13T10:00:16.993Z,7.80
2023-01-13T10:03:18.265Z,7.90
2023-01-13T10:05:56.607Z,8.00
2023-01-13T10:08:29.399Z,8.00
2023-01-13T10:10:59.729Z,8.10
2023-01-13T10:13:31.330Z,8.10
2023-01-13T10:16:19.839Z,8.20
2023-01-13T10:19:06.723Z,8.20
2023-01-13T10:22:04.427Z,8.10
2023-01-13T10:25:10.290Z,8.10
2023-01-13T10:27:39.578Z,8.10
2023-01-13T10:30:19.961Z,8.30
2023-01-13T10:32:58.736Z,8.20
2023-01-13T10:36:11.634Z,8.00
2023-01-13T10:39:02.030Z,8.00
2023-01-13T10:41:28.982Z,8.00
2023-01-13T10:44:01.233Z,8.00
2023-01-13T10:46:49.782Z,7.80
2023-01-13T10:49:33.132Z,7.90
2023-01-13T10:52:01.957Z,7.80
2023-01-13T10:54:29.677Z,7.90
2023-01-13T10:57:37.544Z,7.80
2023-01-13T11:00:06.166Z,7.90
2023-01-13T11:02:36.105Z,8.00
2023-01-13T11:05:28.467Z,7.90
2023-01-13T11:07:58.002Z,7.90
2023-01-13T11:10:34.055Z,7.90
2023-01-13T11:16:18.266Z,8.00
2023-01-13T11:19:14.678Z,8.00
2023-01-13T11:22:03.642Z,7.90
2023-01-13T11:24:42.994Z,7.90
2023-01-13T11:27:37.515Z,8.00
2023-01-13T11:30:26.028Z,8.00
2023-01-13T11:33:11.166Z,8.10
2023-01-13T11:36:15.604Z,8.10
2023-01-13T11:38:55.911Z,8.00
2023-01-13T11:41:41.936Z,7.90
2023-01-13T11:44:38.579Z,8.20
2023-01-13T11:47:05.488Z,8.00
2023-01-13T11:49:33.945Z,8.00
2023-01-13T11:52:30.673Z,8.10
2023-01-13T11:55:25.380Z,8.20
2023-01-13T11:58:50.198Z,8.10
2023-01-13T12:01:36.511Z,8.20
2023-01-13T12:04:41.831Z,8.20
2023-01-13T12:07:28.783Z,8.10
2023-01-13T12:10:05.205Z,8.10
2023-01-13T12:12:53.318Z,8.10
2023-01-13T12:15:42.193Z,8.00
2023-01-13T12:18:30.474Z,8.00
2023-01-13T12:21:06.598Z,7.90
2023-01-13T12:23:39.368Z,7.90
2023-01-13T12:26:16.750Z,7.90
2023-01-13T12:28:53.072Z,8.00
2023-01-13T12:31:21.819Z,8.00
2023-01-13T12:33:56.596Z,8.10
2023-01-13T12:36:35.731Z,8.10
2023-01-13T12:39:31.266Z,8.10
2023-01-13T12:42:34.899Z,8.10
2023-01-13T12:45:11.070Z,8.20
2023-01-13T12:50:37.682Z,8.20
2023-01-13T12:53:33.799Z,8.10
2023-01-13T12:56:36.995Z,8.10
2023-01-13T12:59:19.358Z,8.00
2023-01-13T13:01:48.971Z,8.10
2023-01-13T13:04:42.755Z,8.10
2023-01-13T13:07:12.717Z,8.00
2023-01-13T13:09:46.347Z,8.00
2023-01-13T13:12:49.975Z,8.10
2023-01-13T13:15:24.042Z,8.10
2023-01-13T13:18:02.698Z,8.10
2023-01-13T13:21:04.526Z,8.10
2023-01-13T13:23:43.659Z,8.00
2023-01-13T13:26:22.089Z,8.10
2023-01-13T13:28:57.935Z,8.10
2023-01-13T13:31:55.739Z,7.90
2023-01-13T13:34:32.623Z,8.00
2023-01-13T13:37:20.585Z,8.00
2023-01-13T13:40:06.492Z,7.90
2023-01-13T13:43:02.284Z,8.00
2023-01-13T13:45:48.321Z,8.00
2023-01-13T13:48:31.193Z,8.10
2023-01-13T13:51:04.682Z,8.10
2023-01-13T13:53:37.203Z,8.00
2023-01-13T13:56:14.784Z,8.10
2023-01-13T13:58:41.819Z,8.00
2023-01-13T14:01:28.282Z,8.10
2023-01-13T14:04:07.587Z,8.10
2023-01-13T14:06:34.503Z,8.10
2023-01-13T14:09:03.403Z,8.10
2023-01-13T14:11:33.176Z,8.10
2023-01-13T14:14:21.066Z,8.00
2023-01-13T14:16:47.953Z,8.20
2023-01-13T14:19:33.113Z,8.00
2023-01-13T14:22:02.483Z,8.10
2023-01-13T14:24:30.698Z,8.10
2023-01-13T14:27:16.291Z,8.10
2023-01-13T14:29:54.964Z,8.10
2023-01-13T14:32:36.536Z,8.10
2023-01-13T14:35:07.299Z,8.00
2023-01-13T14:37:39.831Z,8.10
2023-01-13T14:40:27.569Z,8.10
2023-01-13T14:43:11.871Z,8.00
2023-01-13T14:45:42.427Z,7.90
2023-01-13T14:48:39.328Z,7.90
2023-01-13T14:51:11.425Z,7.90
2023-01-13T14:53:47.147Z,7.90
2023-01-13T14:56:39.618Z,7.90
2023-01-13T14:59:51.884Z,8.00
2023-01-13T15:02:39.008Z,7.90
2023-01-13T15:05:22.456Z,8.00
2023-01-13T15:08:00.555Z,8.10
2023-01-13T15:10:31.675Z,8.00
2023-01-13T15:13:01.225Z,8.00
2023-01-13T15:15:33.888Z,8.10
2023-01-13T15:18:22.041Z,8.10
2023-01-13T15:20:50.903Z,8.10
2023-01-13T15:23:19.626Z,8.10
2023-01-13T15:25:47.296Z,8.10
2023-01-13T15:28:25.830Z,8.20
2023-01-13T15:30:54.432Z,8.20
2023-01-13T15:33:22.374Z,8.10
2023-01-13T15:35:51.999Z,8.20
2023-01-13T15:38:21.776Z,8.20
2023-01-13T15:40:50.722Z,8.20
2023-01-13T15:43:38.279Z,8.30
2023-01-13T15:46:38.573Z,8.30
2023-01-13T15:49:12.862Z,8.30
2023-01-13T15:51:40.279Z,8.20
2023-01-13T15:54:10.073Z,8.20
2023-01-13T15:56:38.087Z,8.30
2023-01-13T15:59:10.660Z,8.30
2023-01-13T16:01:37.533Z,8.20
2023-01-13T16:04:04.531Z,8.20
2023-01-13T16:06:36.282Z,8.30
2023-01-13T16:09:04.773Z,8.20
2023-01-13T16:11:31.730Z,8.30
2023-01-13T16:13:58.731Z,8.30
2023-01-13T16:16:27.827Z,8.30
2023-01-13T16:19:38.871Z,8.10
2023-01-13T16:22:06.023Z,8.10
2023-01-13T16:24:34.600Z,8.10
2023-01-13T16:27:07.697Z,8.10
2023-01-13T16:29:45.149Z,8.00
2023-01-13T16:32:12.112Z,8.00
2023-01-13T16:34:39.486Z,8.00
2023-01-13T16:37:41.847Z,7.90
2023-01-13T16:40:23.032Z,7.90
2023-01-13T16:42:50.451Z,7.90
2023-01-13T16:45:18.132Z,8.00
2023-01-13T16:47:45.608Z,8.00
2023-01-13T16:50:42.177Z,8.00
2023-01-13T16:53:15.625Z,7.80
2023-01-13T16:56:20.047Z,7.80
2023-01-13T16:58:51.569Z,7.70
2023-01-13T17:01:37.487Z,7.70
2023-01-13T17:04:05.605Z,7.70
2023-01-13T17:06:43.045Z,7.80
2023-01-13T17:09:20.641Z,7.80
2023-01-13T17:11:47.754Z,7.70
2023-01-13T17:14:18.963Z,7.70
2023-01-13T17:16:46.954Z,7.70
2023-01-13T17:19:14.478Z,7.80
2023-01-13T17:21:42.367Z,7.70
2023-01-13T17:24:10.777Z,7.80
2023-01-13T17:26:49.357Z,7.70
2023-01-13T17:29:27.309Z,7.80
2023-01-13T17:32:00.955Z,7.80
2023-01-13T17:34:28.430Z,7.70
2023-01-13T17:36:55.561Z,7.70
2023-01-13T17:39:26.304Z,7.70
2023-01-13T17:41:56.019Z,7.70
2023-01-13T17:44:31.383Z,7.70
2023-01-13T17:46:58.508Z,7.70
2023-01-13T17:49:25.611Z,7.70
2023-01-13T17:51:53.036Z,7.70
2023-01-13T17:54:45.287Z,7.70
2023-01-13T17:57:13.795Z,7.70
2023-01-13T17:59:44.127Z,7.60
2023-01-13T18:02:42.676Z,7.60
2023-01-13T18:05:39.144Z,7.70
2023-01-13T18:08:06.298Z,7.80
2023-01-13T18:10:36.069Z,7.70
2023-01-13T18:13:15.507Z,7.70
2023-01-13T18:15:45.329Z,7.70
2023-01-13T18:18:21.491Z,7.70
2023-01-13T18:21:07.116Z,7.70
2023-01-13T18:23:52.495Z,7.70
2023-01-13T18:26:39.196Z,7.70
2023-01-13T18:29:06.282Z,7.60
2023-01-13T18:31:33.133Z,7.60
2023-01-13T18:34:15.802Z,7.50
2023-01-13T18:36:49.321Z,7.50
2023-01-13T18:39:25.039Z,7.50
2023-01-13T18:42:10.355Z,7.60
2023-01-13T18:44:53.403Z,7.50
2023-01-13T18:47:20.456Z,7.50
2023-01-13T18:49:47.367Z,7.40
2023-01-13T18:52:14.327Z,7.40
2023-01-13T18:54:41.338Z,7.40
2023-01-13T18:57:08.359Z,7.60
2023-01-13T18:59:35.336Z,7.50
2023-01-13T19:02:08.368Z,7.50
2023-01-13T19:04:36.334Z,7.60
2023-01-13T19:07:29.328Z,7.50
2023-01-13T19:09:56.333Z,7.50
2023-01-13T19:12:26.369Z,7.60
2023-01-13T19:14:55.452Z,7.30
2023-01-13T19:17:24.005Z,7.10
2023-01-13T19:20:02.117Z,6.90
2023-01-13T19:22:37.529Z,6.80
2023-01-13T19:25:09.022Z,6.60
2023-01-13T19:28:08.975Z,6.60
2023-01-13T19:30:36.240Z,6.60
2023-01-13T19:33:03.264Z,6.60
2023-01-13T19:35:30.195Z,6.60
2023-01-13T19:37:57.375Z,6.60
2023-01-13T19:43:24.072Z,6.60
2023-01-13T19:45:51.529Z,6.80
2023-01-13T19:48:18.403Z,6.80
2023-01-13T19:50:45.567Z,6.80
2023-01-13T19:53:17.642Z,6.80
2023-01-13T19:55:47.730Z,6.80
2023-01-13T19:58:18.941Z,6.90
2023-01-13T20:00:55.346Z,6.90
2023-01-13T20:03:25.415Z,6.90
2023-01-13T20:05:53.628Z,7.10
2023-01-13T20:08:22.316Z,6.90
2023-01-13T20:10:49.662Z,6.90
2023-01-13T20:13:16.916Z,7.00
2023-01-13T20:15:44.067Z,7.00
2023-01-13T20:18:11.109Z,7.00
2023-01-13T20:20:38.152Z,7.10
2023-01-13T20:23:11.471Z,6.90
2023-01-13T20:25:42.510Z,6.80
2023-01-13T20:28:09.552Z,6.90
2023-01-13T20:30:39.160Z,7.00
2023-01-13T20:33:10.800Z,7.00
2023-01-13T20:35:37.784Z,7.10
2023-01-13T20:38:04.702Z,7.00
2023-01-13T20:40:31.544Z,6.90
2023-01-13T20:42:58.425Z,6.90
2023-01-13T20:45:26.152Z,7.00
2023-01-13T20:47:54.156Z,6.90
2023-01-13T20:50:29.327Z,7.00
2023-01-13T20:55:50.939Z,7.00
2023-01-13T20:58:17.844Z,7.00
2023-01-13T21:03:28.332Z,6.90
2023-01-13T21:05:58.761Z,6.90
2023-01-13T21:08:30.205Z,6.90
2023-01-13T21:11:10.500Z,6.80
2023-01-13T21:14:03.543Z,6.80
2023-01-13T21:16:33.140Z,6.80
2023-01-13T21:19:16.263Z,6.80
2023-01-13T21:21:43.211Z,6.90
2023-01-13T21:24:17.231Z,6.90
2023-01-13T21:26:54.694Z,6.80
2023-01-13T21:29:25.761Z,6.90
2023-01-13T21:31:56.285Z,7.00
2023-01-13T21:34:23.267Z,6.90
2023-01-13T21:36:50.167Z,7.00
2023-01-13T21:39:24.912Z,7.00
2023-01-13T21:42:10.823Z,6.90
2023-01-13T21:44:56.280Z,7.10
2023-01-13T21:47:43.491Z,7.00
2023-01-13T21:50:17.501Z,7.00
2023-01-13T21:52:45.336Z,7.00
2023-01-13T21:55:28.115Z,7.00
2023-01-13T21:58:09.488Z,6.90
2023-01-13T22:00:36.567Z,6.90
2023-01-13T22:03:05.471Z,7.00
2023-01-13T22:05:33.077Z,7.00
2023-01-13T22:08:00.237Z,7.10
2023-01-13T22:10:30.150Z,7.10
2023-01-13T22:13:33.090Z,7.10
2023-01-13T22:16:04.495Z,7.10
2023-01-13T22:18:31.431Z,7.10
2023-01-13T22:21:01.157Z,7.10
2023-01-13T22:23:28.380Z,7.10
2023-01-13T22:26:05.279Z,7.10
2023-01-13T22:28:40.661Z,7.10
2023-01-13T22:31:12.788Z,7.10
2023-01-13T22:33:40.253Z,7.00
2023-01-13T22:36:09.237Z,7.00
2023-01-13T22:38:36.747Z,6.90
2023-01-13T22:41:06.632Z,7.00
2023-01-13T22:43:34.339Z,7.00
2023-01-13T22:46:04.102Z,6.90
2023-01-13T22:48:30.940Z,6.90
2023-01-13T22:51:08.561Z,6.90
2023-01-13T22:53:36.537Z,7.00
2023-01-13T22:56:05.683Z,7.00
2023-01-13T22:58:32.629Z,7.00
2023-01-13T23:01:11.069Z,7.00
2023-01-13T23:03:38.378Z,7.10
2023-01-13T23:06:06.044Z,7.10
2023-01-13T23:08:41.115Z,7.10
2023-01-13T23:11:10.517Z,7.10
2023-01-13T23:13:39.262Z,7.10
2023-01-13T23:16:08.915Z,7.10
2023-01-13T23:18:35.901Z,7.10
2023-01-13T23:21:07.458Z,7.20
2023-01-13T23:23:34.695Z,7.20
2023-01-13T23:26:01.923Z,7.20
2023-01-13T23:28:30.153Z,7.20
2023-01-13T23:30:57.335Z,7.20
2023-01-13T23:33:24.184Z,7.20
2023-01-13T23:36:19.591Z,7.10
2023-01-13T23:38:46.979Z,7.20
2023-01-13T23:41:17.798Z,7.20
2023-01-13T23:43:50.882Z,7.10
2023-01-13T23:46:17.910Z,7.20
2023-01-13T23:48:45.234Z,7.10
2023-01-13T23:51:13.005Z,7.10
2023-01-13T23:53:42.786Z,7.10
2023-01-13T23:56:20.045Z,7.20
2023-01-13T23:58:47.401Z,7.20
